sensor_id;sensor_type;location;lat;lon;timestamp;pressure;altitude;pressure_sealevel;temperature;humidity
21300;BME280;10809;49.476;11.016;2023-02-03T00:01:32;99226.44;;;4.34;77.10
21300;BME280;10809;49.476;11.016;2023-02-03T00:04:03;99229.06;;;4.34;77.22
21300;BME280;10809;49.476;11.016;2023-02-03T00:06:33;99226.44;;;4.34;77.02
21300;BME280;10809;49.476;11.016;2023-02-03T00:09:04;99232.53;;;4.34;77.15
21300;BME280;10809;49.476;11.016;2023-02-03T00:11:35;99233.41;;;4.33;77.22
21300;BME280;10809;49.476;11.016;2023-02-03T00:14:05;99220.31;;;4.33;77.28
21300;BME280;10809;49.476;11.016;2023-02-03T00:16:37;99230.81;;;4.33;77.19
21300;BME280;10809;49.476;11.016;2023-02-03T00:19:07;99235.16;;;4.32;77.20
21300;BME280;10809;49.476;11.016;2023-02-03T00:21:38;99240.41;;;4.32;77.01
21300;BME280;10809;49.476;11.016;2023-02-03T00:24:08;99229.91;;;4.32;77.16
21300;BME280;10809;49.476;11.016;2023-02-03T00:26:42;99233.44;;;4.32;76.97
21300;BME280;10809;49.476;11.016;2023-02-03T00:29:12;99224.72;;;4.31;77.07
21300;BME280;10809;49.476;11.016;2023-02-03T00:31:43;99232.56;;;4.31;77.32
21300;BME280;10809;49.476;11.016;2023-02-03T00:34:15;99232.56;;;4.31;77.37
21300;BME280;10809;49.476;11.016;2023-02-03T00:36:45;99229.97;;;4.29;77.47
21300;BME280;10809;49.476;11.016;2023-02-03T00:39:17;99228.22;;;4.30;77.51
21300;BME280;10809;49.476;11.016;2023-02-03T00:41:47;99229.97;;;4.29;77.36
21300;BME280;10809;49.476;11.016;2023-02-03T00:44:18;99222.97;;;4.30;77.21
21300;BME280;10809;49.476;11.016;2023-02-03T00:46:48;99230.84;;;4.30;77.04
21300;BME280;10809;49.476;11.016;2023-02-03T00:49:19;99241.34;;;4.30;77.23
21300;BME280;10809;49.476;11.016;2023-02-03T00:51:50;99231.75;;;4.29;77.34
21300;BME280;10809;49.476;11.016;2023-02-03T00:54:20;99218.66;;;4.29;77.06
21300;BME280;10809;49.476;11.016;2023-02-03T00:56:51;99224.72;;;4.29;77.17
21300;BME280;10809;49.476;11.016;2023-02-03T00:59:21;99227.38;;;4.28;77.08
21300;BME280;10809;49.476;11.016;2023-02-03T01:01:51;99224.72;;;4.29;77.37
21300;BME280;10809;49.476;11.016;2023-02-03T01:04:22;99225.63;;;4.28;77.69
21300;BME280;10809;49.476;11.016;2023-02-03T01:06:52;99227.38;;;4.28;77.18
21300;BME280;10809;49.476;11.016;2023-02-03T01:09:26;99234.38;;;4.29;77.59
21300;BME280;10809;49.476;11.016;2023-02-03T01:11:57;99230.88;;;4.28;77.66
21300;BME280;10809;49.476;11.016;2023-02-03T01:14:28;99226.50;;;4.29;77.72
21300;BME280;10809;49.476;11.016;2023-02-03T01:16:59;99240.47;;;4.29;77.88
21300;BME280;10809;49.476;11.016;2023-02-03T01:19:29;99235.22;;;4.29;77.58
21300;BME280;10809;49.476;11.016;2023-02-03T01:22:00;99233.47;;;4.30;77.72
21300;BME280;10809;49.476;11.016;2023-02-03T01:24:30;99229.09;;;4.31;77.76
21300;BME280;10809;49.476;11.016;2023-02-03T01:27:01;99233.44;;;4.32;77.81
21300;BME280;10809;49.476;11.016;2023-02-03T01:29:31;99232.56;;;4.31;77.46
21300;BME280;10809;49.476;11.016;2023-02-03T01:32:02;99234.31;;;4.32;77.58
21300;BME280;10809;49.476;11.016;2023-02-03T01:34:32;99223.81;;;4.34;77.55
21300;BME280;10809;49.476;11.016;2023-02-03T01:37:03;99229.09;;;4.32;77.37
21300;BME280;10809;49.476;11.016;2023-02-03T01:39:34;99224.69;;;4.32;77.78
21300;BME280;10809;49.476;11.016;2023-02-03T01:42:04;99223.81;;;4.34;77.84
21300;BME280;10809;49.476;11.016;2023-02-03T01:50:11;99226.41;;;4.35;77.58
21300;BME280;10809;49.476;11.016;2023-02-03T01:52:45;99206.31;;;4.34;77.97
21300;BME280;10809;49.476;11.016;2023-02-03T01:55:20;99208.91;;;4.36;77.88
21300;BME280;10809;49.476;11.016;2023-02-03T01:57:59;99206.28;;;4.36;77.50
21300;BME280;10809;49.476;11.016;2023-02-03T02:00:32;99206.28;;;4.36;78.06
21300;BME280;10809;49.476;11.016;2023-02-03T02:03:04;99187.09;;;4.35;77.67
21300;BME280;10809;49.476;11.016;2023-02-03T02:05:50;99173.06;;;4.36;77.79
21300;BME280;10809;49.476;11.016;2023-02-03T02:08:22;99172.16;;;4.37;77.52
21300;BME280;10809;49.476;11.016;2023-02-03T02:10:53;99168.72;;;4.37;77.84
21300;BME280;10809;49.476;11.016;2023-02-03T02:13:25;99168.72;;;4.37;77.92
21300;BME280;10809;49.476;11.016;2023-02-03T02:27:22;99147.75;;;4.37;77.73
21300;BME280;10809;49.476;11.016;2023-02-03T02:38:58;99175.66;;;4.38;77.58
21300;BME280;10809;49.476;11.016;2023-02-03T02:41:43;99173.94;;;4.37;77.99
21300;BME280;10809;49.476;11.016;2023-02-03T02:44:34;99164.31;;;4.37;77.56
21300;BME280;10809;49.476;11.016;2023-02-03T02:47:25;99171.31;;;4.38;77.52
21300;BME280;10809;49.476;11.016;2023-02-03T02:50:04;99173.91;;;4.40;77.86
21300;BME280;10809;49.476;11.016;2023-02-03T02:52:40;99182.63;;;4.39;77.98
21300;BME280;10809;49.476;11.016;2023-02-03T02:55:19;99179.13;;;4.41;77.55
21300;BME280;10809;49.476;11.016;2023-02-03T02:57:57;99182.59;;;4.42;77.83
21300;BME280;10809;49.476;11.016;2023-02-03T03:00:34;99172.06;;;4.43;78.01
21300;BME280;10809;49.476;11.016;2023-02-03T03:03:17;99174.69;;;4.43;77.69
21300;BME280;10809;49.476;11.016;2023-02-03T03:05:52;99167.66;;;4.45;77.55
21300;BME280;10809;49.476;11.016;2023-02-03T03:11:09;99189.50;;;4.47;77.44
21300;BME280;10809;49.476;11.016;2023-02-03T03:13:49;99185.09;;;4.48;77.59
21300;BME280;10809;49.476;11.016;2023-02-03T03:16:24;99186.84;;;4.49;77.87
21300;BME280;10809;49.476;11.016;2023-02-03T03:19:01;99190.28;;;4.51;77.32
21300;BME280;10809;49.476;11.016;2023-02-03T03:21:37;99196.41;;;4.51;77.88
21300;BME280;10809;49.476;11.016;2023-02-03T03:24:36;99167.56;;;4.51;77.57
21300;BME280;10809;49.476;11.016;2023-02-03T03:27:15;99184.16;;;4.52;77.91
21300;BME280;10809;49.476;11.016;2023-02-03T03:29:51;99174.53;;;4.52;77.52
21300;BME280;10809;49.476;11.016;2023-02-03T03:32:27;99178.91;;;4.53;77.54
21300;BME280;10809;49.476;11.016;2023-02-03T03:35:00;99191.13;;;4.53;77.70
21300;BME280;10809;49.476;11.016;2023-02-03T03:37:40;99192.84;;;4.54;77.56
21300;BME280;10809;49.476;11.016;2023-02-03T03:40:16;99193.72;;;4.54;77.50
21300;BME280;10809;49.476;11.016;2023-02-03T03:45:36;99207.69;;;4.56;77.54
21300;BME280;10809;49.476;11.016;2023-02-03T03:48:15;99213.78;;;4.57;77.73
21300;BME280;10809;49.476;11.016;2023-02-03T03:50:52;99218.19;;;4.56;77.40
21300;BME280;10809;49.476;11.016;2023-02-03T03:53:28;99212.03;;;4.57;77.55
21300;BME280;10809;49.476;11.016;2023-02-03T03:56:00;99199.81;;;4.58;77.43
21300;BME280;10809;49.476;11.016;2023-02-03T03:58:33;99197.19;;;4.58;77.69
21300;BME280;10809;49.476;11.016;2023-02-03T04:01:06;99196.28;;;4.59;77.68
21300;BME280;10809;49.476;11.016;2023-02-03T04:03:45;99186.66;;;4.59;77.61
21300;BME280;10809;49.476;11.016;2023-02-03T04:06:17;99194.50;;;4.61;77.76
21300;BME280;10809;49.476;11.016;2023-02-03T04:08:48;99179.59;;;4.61;77.77
21300;BME280;10809;49.476;11.016;2023-02-03T04:11:18;99175.25;;;4.62;77.93
21300;BME280;10809;49.476;11.016;2023-02-03T04:14:07;99185.69;;;4.63;77.50
21300;BME280;10809;49.476;11.016;2023-02-03T04:16:38;99177.84;;;4.63;77.39
21300;BME280;10809;49.476;11.016;2023-02-03T04:19:08;99169.06;;;4.64;77.79
21300;BME280;10809;49.476;11.016;2023-02-03T04:21:39;99161.16;;;4.66;77.46
21300;BME280;10809;49.476;11.016;2023-02-03T04:24:09;99167.31;;;4.65;77.43
21300;BME280;10809;49.476;11.016;2023-02-03T04:26:41;99167.28;;;4.66;77.39
21300;BME280;10809;49.476;11.016;2023-02-03T04:29:12;99157.66;;;4.67;77.70
21300;BME280;10809;49.476;11.016;2023-02-03T04:31:42;99156.78;;;4.66;77.38
21300;BME280;10809;49.476;11.016;2023-02-03T04:34:12;99158.50;;;4.67;77.74
21300;BME280;10809;49.476;11.016;2023-02-03T04:36:43;99155.03;;;4.67;77.19
21300;BME280;10809;49.476;11.016;2023-02-03T04:39:13;99141.91;;;4.68;77.42
21300;BME280;10809;49.476;11.016;2023-02-03T04:41:44;99134.91;;;4.67;77.27
21300;BME280;10809;49.476;11.016;2023-02-03T04:44:14;99141.94;;;4.67;77.58
21300;BME280;10809;49.476;11.016;2023-02-03T04:46:45;99134.91;;;4.67;77.20
21300;BME280;10809;49.476;11.016;2023-02-03T04:49:15;99142.78;;;4.67;77.36
21300;BME280;10809;49.476;11.016;2023-02-03T04:51:50;99125.31;;;4.66;77.48
21300;BME280;10809;49.476;11.016;2023-02-03T04:54:20;99137.53;;;4.67;77.66
21300;BME280;10809;49.476;11.016;2023-02-03T04:56:51;99130.56;;;4.66;77.61
21300;BME280;10809;49.476;11.016;2023-02-03T04:59:21;99141.03;;;4.68;77.66
21300;BME280;10809;49.476;11.016;2023-02-03T05:01:52;99148.91;;;4.68;77.67
21300;BME280;10809;49.476;11.016;2023-02-03T05:04:23;99151.53;;;4.68;77.40
21300;BME280;10809;49.476;11.016;2023-02-03T05:06:53;99164.63;;;4.68;77.76
21300;BME280;10809;49.476;11.016;2023-02-03T05:09:27;99162.00;;;4.68;77.56
21300;BME280;10809;49.476;11.016;2023-02-03T05:11:57;99148.03;;;4.67;76.89
21300;BME280;10809;49.476;11.016;2023-02-03T05:14:28;99142.78;;;4.67;77.19
21300;BME280;10809;49.476;11.016;2023-02-03T05:16:58;99148.03;;;4.67;77.10
21300;BME280;10809;49.476;11.016;2023-02-03T05:19:28;99162.00;;;4.68;77.56
21300;BME280;10809;49.476;11.016;2023-02-03T05:21:59;99162.00;;;4.68;77.18
21300;BME280;10809;49.476;11.016;2023-02-03T05:24:29;99158.50;;;4.67;77.14
21300;BME280;10809;49.476;11.016;2023-02-03T05:27:00;99183.91;;;4.67;77.26
21300;BME280;10809;49.476;11.016;2023-02-03T05:29:30;99174.25;;;4.67;77.61
21300;BME280;10809;49.476;11.016;2023-02-03T05:32:01;99180.41;;;4.66;77.41
21300;BME280;10809;49.476;11.016;2023-02-03T05:34:31;99175.13;;;4.68;77.20
21300;BME280;10809;49.476;11.016;2023-02-03T05:37:02;99163.75;;;4.67;77.05
21300;BME280;10809;49.476;11.016;2023-02-03T05:39:33;99173.41;;;4.67;76.87
21300;BME280;10809;49.476;11.016;2023-02-03T05:42:03;99174.28;;;4.66;77.13
21300;BME280;10809;49.476;11.016;2023-02-03T05:44:34;99181.25;;;4.68;77.05
21300;BME280;10809;49.476;11.016;2023-02-03T05:47:04;99183.91;;;4.67;77.04
21300;BME280;10809;49.476;11.016;2023-02-03T05:49:35;99178.66;;;4.67;77.17
21300;BME280;10809;49.476;11.016;2023-02-03T05:52:05;99176.00;;;4.68;77.26
21300;BME280;10809;49.476;11.016;2023-02-03T05:54:36;99174.22;;;4.69;77.33
21300;BME280;10809;49.476;11.016;2023-02-03T05:57:06;99165.53;;;4.67;76.99
21300;BME280;10809;49.476;11.016;2023-02-03T05:59:37;99159.38;;;4.68;77.39
21300;BME280;10809;49.476;11.016;2023-02-03T06:02:07;99162.00;;;4.68;76.94
21300;BME280;10809;49.476;11.016;2023-02-03T06:04:38;99147.19;;;4.67;77.25
21300;BME280;10809;49.476;11.016;2023-02-03T06:07:08;99143.69;;;4.66;77.01
21300;BME280;10809;49.476;11.016;2023-02-03T06:09:39;99149.81;;;4.67;77.23
21300;BME280;10809;49.476;11.016;2023-02-03T06:12:10;99144.56;;;4.67;77.26
21300;BME280;10809;49.476;11.016;2023-02-03T06:14:40;99129.66;;;4.67;77.22
21300;BME280;10809;49.476;11.016;2023-02-03T06:17:11;99115.72;;;4.67;77.00
21300;BME280;10809;49.476;11.016;2023-02-03T06:19:42;99107.84;;;4.67;77.33
21300;BME280;10809;49.476;11.016;2023-02-03T06:22:12;99103.47;;;4.66;77.17
21300;BME280;10809;49.476;11.016;2023-02-03T06:24:46;99118.31;;;4.67;77.16
21300;BME280;10809;49.476;11.016;2023-02-03T06:27:17;99121.78;;;4.67;77.33
21300;BME280;10809;49.476;11.016;2023-02-03T06:29:48;99101.72;;;4.66;77.51
21300;BME280;10809;49.476;11.016;2023-02-03T06:32:19;99108.72;;;4.66;77.20
21300;BME280;10809;49.476;11.016;2023-02-03T06:34:50;99107.88;;;4.65;77.18
21300;BME280;10809;49.476;11.016;2023-02-03T06:37:21;99108.72;;;4.66;77.29
21300;BME280;10809;49.476;11.016;2023-02-03T06:39:51;99103.47;;;4.66;77.43
21300;BME280;10809;49.476;11.016;2023-02-03T06:42:22;99102.63;;;4.65;77.04
21300;BME280;10809;49.476;11.016;2023-02-03T06:44:53;99095.63;;;4.64;77.03
21300;BME280;10809;49.476;11.016;2023-02-03T06:47:24;99102.63;;;4.65;77.13
21300;BME280;10809;49.476;11.016;2023-02-03T06:49:55;99108.75;;;4.64;77.29
21300;BME280;10809;49.476;11.016;2023-02-03T06:52:25;99120.09;;;4.65;77.27
21300;BME280;10809;49.476;11.016;2023-02-03T06:54:57;99132.31;;;4.66;77.51
21300;BME280;10809;49.476;11.016;2023-02-03T06:57:28;99127.06;;;4.66;76.93
21300;BME280;10809;49.476;11.016;2023-02-03T06:59:59;99114.81;;;4.66;77.20
21300;BME280;10809;49.476;11.016;2023-02-03T07:02:31;99110.47;;;4.67;77.24
21300;BME280;10809;49.476;11.016;2023-02-03T07:05:03;99099.06;;;4.68;76.92
21300;BME280;10809;49.476;11.016;2023-02-03T07:07:37;99103.41;;;4.69;77.18
21300;BME280;10809;49.476;11.016;2023-02-03T07:10:10;99109.53;;;4.69;77.11
21300;BME280;10809;49.476;11.016;2023-02-03T07:12:43;99110.41;;;4.70;77.25
21300;BME280;10809;49.476;11.016;2023-02-03T07:15:14;99093.75;;;4.71;77.48
21300;BME280;10809;49.476;11.016;2023-02-03T07:17:47;99100.75;;;4.72;77.30
21300;BME280;10809;49.476;11.016;2023-02-03T07:20:24;99116.50;;;4.72;77.12
21300;BME280;10809;49.476;11.016;2023-02-03T07:22:59;99119.09;;;4.73;77.32
21300;BME280;10809;49.476;11.016;2023-02-03T07:25:32;99117.31;;;4.74;77.36
21300;BME280;10809;49.476;11.016;2023-02-03T07:28:03;99119.06;;;4.75;77.09
21300;BME280;10809;49.476;11.016;2023-02-03T07:30:36;99128.63;;;4.77;76.58
21300;BME280;10809;49.476;11.016;2023-02-03T07:33:08;99124.25;;;4.78;77.14
21300;BME280;10809;49.476;11.016;2023-02-03T07:35:39;99145.22;;;4.78;76.77
21300;BME280;10809;49.476;11.016;2023-02-03T07:38:10;99170.56;;;4.79;76.93
21300;BME280;10809;49.476;11.016;2023-02-03T07:40:41;99159.16;;;4.80;77.02
21300;BME280;10809;49.476;11.016;2023-02-03T07:43:12;99138.16;;;4.80;76.89
21300;BME280;10809;49.476;11.016;2023-02-03T07:45:44;99157.38;;;4.82;76.63
21300;BME280;10809;49.476;11.016;2023-02-03T07:48:14;99141.63;;;4.82;77.09
21300;BME280;10809;49.476;11.016;2023-02-03T07:50:47;99133.75;;;4.83;76.84
21300;BME280;10809;49.476;11.016;2023-02-03T07:53:18;99158.22;;;4.84;76.61
21300;BME280;10809;49.476;11.016;2023-02-03T07:55:49;99152.97;;;4.84;76.88
21300;BME280;10809;49.476;11.016;2023-02-03T07:58:19;99169.53;;;4.86;77.06
21300;BME280;10809;49.476;11.016;2023-02-03T08:00:50;99152.06;;;4.85;77.00
21300;BME280;10809;49.476;11.016;2023-02-03T08:03:22;99159.03;;;4.86;76.76
21300;BME280;10809;49.476;11.016;2023-02-03T08:05:53;99152.00;;;4.88;77.03
21300;BME280;10809;49.476;11.016;2023-02-03T08:08:24;99147.66;;;4.87;76.78
21300;BME280;10809;49.476;11.016;2023-02-03T08:10:55;99133.66;;;4.88;76.71
21300;BME280;10809;49.476;11.016;2023-02-03T08:13:27;99136.28;;;4.88;76.62
21300;BME280;10809;49.476;11.016;2023-02-03T08:15:58;99140.63;;;4.89;76.54
21300;BME280;10809;49.476;11.016;2023-02-03T08:18:29;99148.47;;;4.89;76.50
21300;BME280;10809;49.476;11.016;2023-02-03T08:21:00;99156.31;;;4.90;76.60
21300;BME280;10809;49.476;11.016;2023-02-03T08:23:33;99145.84;;;4.90;76.77
21300;BME280;10809;49.476;11.016;2023-02-03T08:26:05;99142.34;;;4.91;76.88
21300;BME280;10809;49.476;11.016;2023-02-03T08:28:38;99139.69;;;4.93;76.71
21300;BME280;10809;49.476;11.016;2023-02-03T08:31:11;99146.66;;;4.94;77.04
21300;BME280;10809;49.476;11.016;2023-02-03T08:33:42;99165.84;;;4.96;76.66
21300;BME280;10809;49.476;11.016;2023-02-03T08:36:13;99162.31;;;4.97;76.79
21300;BME280;10809;49.476;11.016;2023-02-03T08:38:44;99152.72;;;4.97;76.95
21300;BME280;10809;49.476;11.016;2023-02-03T08:41:16;99150.94;;;4.98;76.70
21300;BME280;10809;49.476;11.016;2023-02-03T08:43:47;99142.19;;;4.99;76.79
21300;BME280;10809;49.476;11.016;2023-02-03T08:46:19;99135.16;;;4.99;76.59
21300;BME280;10809;49.476;11.016;2023-02-03T08:48:52;99132.50;;;5.01;76.91
21300;BME280;10809;49.476;11.016;2023-02-03T08:51:27;99133.38;;;5.01;76.77
21300;BME280;10809;49.476;11.016;2023-02-03T08:53:58;99131.63;;;5.02;76.69
21300;BME280;10809;49.476;11.016;2023-02-03T08:56:29;99129.84;;;5.02;76.95
21300;BME280;10809;49.476;11.016;2023-02-03T08:59:02;99120.22;;;5.03;76.64
21300;BME280;10809;49.476;11.016;2023-02-03T09:01:34;99126.34;;;5.03;76.84
21300;BME280;10809;49.476;11.016;2023-02-03T09:04:06;99121.06;;;5.05;76.79
21300;BME280;10809;49.476;11.016;2023-02-03T09:06:40;99132.38;;;5.07;76.61
21300;BME280;10809;49.476;11.016;2023-02-03T09:09:12;99125.34;;;5.09;76.86
21300;BME280;10809;49.476;11.016;2023-02-03T09:11:43;99112.22;;;5.09;76.76
21300;BME280;10809;49.476;11.016;2023-02-03T09:14:13;99113.94;;;5.10;76.43
21300;BME280;10809;49.476;11.016;2023-02-03T09:16:45;99122.69;;;5.10;76.62
21300;BME280;10809;49.476;11.016;2023-02-03T09:19:16;99117.41;;;5.12;76.33
21300;BME280;10809;49.476;11.016;2023-02-03T09:21:47;99106.00;;;5.13;76.53
21300;BME280;10809;49.476;11.016;2023-02-03T09:24:18;99132.25;;;5.13;76.50
21300;BME280;10809;49.476;11.016;2023-02-03T09:26:50;99114.72;;;5.15;76.70
21300;BME280;10809;49.476;11.016;2023-02-03T09:29:21;99108.53;;;5.17;76.79
21300;BME280;10809;49.476;11.016;2023-02-03T09:32:02;99098.91;;;5.18;76.37
21300;BME280;10809;49.476;11.016;2023-02-03T09:34:37;99101.50;;;5.19;76.38
21300;BME280;10809;49.476;11.016;2023-02-03T09:37:11;99088.31;;;5.21;76.27
21300;BME280;10809;49.476;11.016;2023-02-03T09:39:46;99083.06;;;5.22;76.10
21300;BME280;10809;49.476;11.016;2023-02-03T09:45:13;99079.50;;;5.26;76.52
21300;BME280;10809;49.476;11.016;2023-02-03T09:47:50;99068.94;;;5.29;76.10
21300;BME280;10809;49.476;11.016;2023-02-03T09:50:29;99090.75;;;5.31;76.40
21300;BME280;10809;49.476;11.016;2023-02-03T09:53:11;99076.72;;;5.34;76.14
21300;BME280;10809;49.476;11.016;2023-02-03T09:55:47;99067.94;;;5.35;76.25
21300;BME280;10809;49.476;11.016;2023-02-03T09:58:21;99066.09;;;5.38;76.23
21300;BME280;10809;49.476;11.016;2023-02-03T10:00:55;99062.53;;;5.41;76.27
21300;BME280;10809;49.476;11.016;2023-02-03T10:03:48;99073.00;;;5.42;75.96
21300;BME280;10809;49.476;11.016;2023-02-03T10:14:56;99066.72;;;5.48;75.66
21300;BME280;10809;49.476;11.016;2023-02-03T10:17:39;99059.69;;;5.50;75.67
21300;BME280;10809;49.476;11.016;2023-02-03T10:20:19;99067.53;;;5.51;75.55
21300;BME280;10809;49.476;11.016;2023-02-03T10:22:57;99054.38;;;5.53;75.72
21300;BME280;10809;49.476;11.016;2023-02-03T10:25:38;99041.13;;;5.57;75.79
21300;BME280;10809;49.476;11.016;2023-02-03T10:28:24;99040.25;;;5.57;75.52
21300;BME280;10809;49.476;11.016;2023-02-03T10:30:59;99035.81;;;5.60;75.67
21300;BME280;10809;49.476;11.016;2023-02-03T10:33:31;99040.09;;;5.63;75.69
21300;BME280;10809;49.476;11.016;2023-02-03T10:41:17;99033.91;;;5.67;75.26
21300;BME280;10809;49.476;11.016;2023-02-03T10:43:52;99030.31;;;5.69;75.30
21300;BME280;10809;49.476;11.016;2023-02-03T10:46:28;98994.38;;;5.71;75.32
21300;BME280;10809;49.476;11.016;2023-02-03T10:49:01;98977.69;;;5.72;75.16
21300;BME280;10809;49.476;11.016;2023-02-03T10:51:39;99024.94;;;5.74;75.13
21300;BME280;10809;49.476;11.016;2023-02-03T10:54:34;98994.28;;;5.74;75.23
21300;BME280;10809;49.476;11.016;2023-02-03T10:57:10;98990.72;;;5.77;75.02
21300;BME280;10809;49.476;11.016;2023-02-03T10:59:45;98975.78;;;5.79;75.07
21300;BME280;10809;49.476;11.016;2023-02-03T11:02:24;98981.88;;;5.81;75.04
21300;BME280;10809;49.476;11.016;2023-02-03T11:07:47;98975.53;;;5.88;75.02
21300;BME280;10809;49.476;11.016;2023-02-03T11:10:28;98980.72;;;5.91;75.16
21300;BME280;10809;49.476;11.016;2023-02-03T11:13:22;98969.22;;;5.95;75.17
21300;BME280;10809;49.476;11.016;2023-02-03T11:16:16;98947.25;;;5.97;75.24
21300;BME280;10809;49.476;11.016;2023-02-03T11:21:39;98940.09;;;6.02;74.51
21300;BME280;10809;49.476;11.016;2023-02-03T11:24:20;98940.97;;;6.03;74.37
21300;BME280;10809;49.476;11.016;2023-02-03T11:26:57;98947.97;;;6.02;74.30
21300;BME280;10809;49.476;11.016;2023-02-03T11:29:44;98953.22;;;6.02;74.11
21300;BME280;10809;49.476;11.016;2023-02-03T11:32:35;98938.38;;;6.01;74.05
21300;BME280;10809;49.476;11.016;2023-02-03T11:37:56;98947.94;;;6.04;74.17
21300;BME280;10809;49.476;11.016;2023-02-03T11:40:30;98951.41;;;6.06;74.21
21300;BME280;10809;49.476;11.016;2023-02-03T11:43:16;98974.19;;;6.05;74.27
21300;BME280;10809;49.476;11.016;2023-02-03T11:45:53;98956.66;;;6.06;73.99
21300;BME280;10809;49.476;11.016;2023-02-03T11:48:53;98945.25;;;6.05;73.76
21300;BME280;10809;49.476;11.016;2023-02-03T11:51:49;98947.88;;;6.05;73.65
21300;BME280;10809;49.476;11.016;2023-02-03T12:04:26;98933.09;;;6.03;73.71
21300;BME280;10809;49.476;11.016;2023-02-03T12:19:02;98924.41;;;5.99;73.58
21300;BME280;10809;49.476;11.016;2023-02-03T12:21:55;98918.31;;;5.99;73.54
21300;BME280;10809;49.476;11.016;2023-02-03T12:27:40;98925.38;;;5.97;73.25
21300;BME280;10809;49.476;11.016;2023-02-03T12:32:58;98917.53;;;5.95;73.43
21300;BME280;10809;49.476;11.016;2023-02-03T12:35:39;98909.69;;;5.94;73.69
21300;BME280;10809;49.476;11.016;2023-02-03T12:38:28;98937.72;;;5.93;73.21
21300;BME280;10809;49.476;11.016;2023-02-03T12:41:08;98915.88;;;5.91;73.27
21300;BME280;10809;49.476;11.016;2023-02-03T12:43:48;98900.97;;;5.92;73.18
21300;BME280;10809;49.476;11.016;2023-02-03T12:46:45;98887.03;;;5.90;73.32
21300;BME280;10809;49.476;11.016;2023-02-03T12:52:02;98877.41;;;5.89;72.88
21300;BME280;10809;49.476;11.016;2023-02-03T12:55:50;98878.31;;;5.88;73.30
21300;BME280;10809;49.476;11.016;2023-02-03T12:57:55;98891.44;;;5.88;73.13
21300;BME280;10809;49.476;11.016;2023-02-03T13:00:43;98887.13;;;5.87;73.23
21300;BME280;10809;49.476;11.016;2023-02-03T13:09:24;98874.94;;;5.83;73.47
21300;BME280;10809;49.476;11.016;2023-02-03T13:12:13;98888.13;;;5.81;73.37
21300;BME280;10809;49.476;11.016;2023-02-03T13:14:55;98902.19;;;5.80;73.32
21300;BME280;10809;49.476;11.016;2023-02-03T13:17:36;98860.13;;;5.80;73.50
21300;BME280;10809;49.476;11.016;2023-02-03T13:20:23;98878.56;;;5.79;73.46
21300;BME280;10809;49.476;11.016;2023-02-03T13:22:54;98886.44;;;5.79;73.61
21300;BME280;10809;49.476;11.016;2023-02-03T13:28:16;98854.03;;;5.78;73.74
21300;BME280;10809;49.476;11.016;2023-02-03T13:37:04;98841.78;;;5.79;73.80
21300;BME280;10809;49.476;11.016;2023-02-03T13:42:46;98829.47;;;5.81;73.55
21300;BME280;10809;49.476;11.016;2023-02-03T13:45:36;98799.69;;;5.80;73.85
21300;BME280;10809;49.476;11.016;2023-02-03T13:48:17;98791.81;;;5.80;73.74
21300;BME280;10809;49.476;11.016;2023-02-03T13:51:06;98783.88;;;5.82;73.74
21300;BME280;10809;49.476;11.016;2023-02-03T13:53:40;98790.03;;;5.82;73.65
21300;BME280;10809;49.476;11.016;2023-02-03T13:56:22;98795.28;;;5.82;73.88
21300;BME280;10809;49.476;11.016;2023-02-03T13:59:28;98807.50;;;5.83;73.85
21300;BME280;10809;49.476;11.016;2023-02-03T14:04:53;98825.84;;;5.85;73.83
21300;BME280;10809;49.476;11.016;2023-02-03T14:07:36;98819.72;;;5.84;73.83
21300;BME280;10809;49.476;11.016;2023-02-03T14:23:13;98807.44;;;5.85;74.21
21300;BME280;10809;49.476;11.016;2023-02-03T14:25:50;98805.69;;;5.85;73.89
21300;BME280;10809;49.476;11.016;2023-02-03T14:28:37;98805.66;;;5.87;74.22
21300;BME280;10809;49.476;11.016;2023-02-03T14:31:13;98801.28;;;5.86;74.09
21300;BME280;10809;49.476;11.016;2023-02-03T14:41:58;98803.94;;;5.84;74.08
21300;BME280;10809;49.476;11.016;2023-02-03T14:44:44;98796.94;;;5.85;74.25
21300;BME280;10809;49.476;11.016;2023-02-03T14:48:11;98808.38;;;5.84;74.46
21300;BME280;10809;49.476;11.016;2023-02-03T14:58:45;98843.50;;;5.80;74.68
21300;BME280;10809;49.476;11.016;2023-02-03T15:01:24;98848.75;;;5.80;74.87
21300;BME280;10809;49.476;11.016;2023-02-03T15:06:46;98833.06;;;5.77;74.93
21300;BME280;10809;49.476;11.016;2023-02-03T15:12:22;98834.91;;;5.75;74.83
21300;BME280;10809;49.476;11.016;2023-02-03T15:15:18;98845.41;;;5.75;74.88
21300;BME280;10809;49.476;11.016;2023-02-03T15:17:54;98850.66;;;5.75;74.98
21300;BME280;10809;49.476;11.016;2023-02-03T15:20:39;98832.31;;;5.73;75.11
21300;BME280;10809;49.476;11.016;2023-02-03T15:23:27;98815.72;;;5.71;75.04
21300;BME280;10809;49.476;11.016;2023-02-03T15:26:00;98799.09;;;5.71;75.04
21300;BME280;10809;49.476;11.016;2023-02-03T15:28:31;98836.78;;;5.70;75.15
21300;BME280;10809;49.476;11.016;2023-02-03T15:31:08;98838.59;;;5.68;75.28
21300;BME280;10809;49.476;11.016;2023-02-03T15:33:47;98843.84;;;5.68;75.48
21300;BME280;10809;49.476;11.016;2023-02-03T15:36:27;98832.47;;;5.67;75.12
21300;BME280;10809;49.476;11.016;2023-02-03T15:45:31;98856.16;;;5.66;75.43
21300;BME280;10809;49.476;11.016;2023-02-03T15:48:13;98836.03;;;5.65;75.50
21300;BME280;10809;49.476;11.016;2023-02-03T15:51:31;98839.59;;;5.64;75.44
21300;BME280;10809;49.476;11.016;2023-02-03T15:56:31;98839.63;;;5.62;75.69
21300;BME280;10809;49.476;11.016;2023-02-03T15:59:55;98854.50;;;5.62;75.71
21300;BME280;10809;49.476;11.016;2023-02-03T16:02:38;98840.50;;;5.61;75.75
21300;BME280;10809;49.476;11.016;2023-02-03T16:07:52;98874.69;;;5.60;76.07
21300;BME280;10809;49.476;11.016;2023-02-03T16:10:31;98846.66;;;5.60;75.99
21300;BME280;10809;49.476;11.016;2023-02-03T16:13:32;98849.34;;;5.59;76.16
21300;BME280;10809;49.476;11.016;2023-02-03T16:16:13;98834.47;;;5.59;75.91
21300;BME280;10809;49.476;11.016;2023-02-03T16:18:53;98843.19;;;5.60;75.95